createdAt,value
2022-10-14T00:01:12.631Z,18.80
2022-10-14T00:03:40.495Z,19.95
2022-10-14T00:06:09.106Z,22.00
2022-10-14T00:08:35.904Z,19.47
2022-10-14T00:11:08.169Z,20.05
2022-10-14T00:13:35.598Z,20.17
2022-10-14T00:16:03.494Z,18.02
2022-10-14T00:18:30.586Z,18.33
2022-10-14T00:21:03.005Z,20.73
2022-10-14T00:23:29.613Z,19.25
2022-10-14T00:25:56.398Z,17.70
2022-10-14T00:28:23.142Z,18.30
2022-10-14T00:30:54.499Z,20.90
2022-10-14T00:33:21.222Z,20.85
2022-10-14T00:35:58.533Z,20.00
2022-10-14T00:38:25.199Z,19.10
2022-10-14T00:40:52.446Z,18.67
2022-10-14T00:43:20.594Z,23.13
2022-10-14T00:45:47.203Z,20.42
2022-10-14T00:48:14.609Z,24.73
2022-10-14T00:50:43.924Z,22.38
2022-10-14T00:53:12.001Z,19.30
2022-10-14T00:55:40.190Z,21.48
2022-10-14T00:58:07.331Z,18.92
2022-10-14T01:00:34.142Z,22.00
2022-10-14T01:03:00.963Z,21.42
2022-10-14T01:05:36.407Z,23.63
2022-10-14T01:08:09.052Z,27.13
2022-10-14T01:10:43.647Z,21.55
2022-10-14T01:13:25.085Z,23.13
2022-10-14T01:16:14.650Z,21.80
2022-10-14T01:18:55.078Z,20.00
2022-10-14T01:21:42.873Z,22.88
2022-10-14T01:24:21.744Z,24.33
2022-10-14T01:27:13.214Z,22.75
2022-10-14T01:30:06.629Z,23.50
2022-10-14T01:32:54.821Z,24.58
2022-10-14T01:35:40.206Z,23.67
2022-10-14T01:38:34.653Z,23.15
2022-10-14T01:41:16.193Z,23.45
2022-10-14T01:43:46.647Z,23.20
2022-10-14T01:46:13.871Z,23.80
2022-10-14T01:48:46.820Z,22.95
2022-10-14T01:51:18.649Z,24.40
2022-10-14T01:53:54.943Z,20.38
2022-10-14T01:56:22.602Z,24.67
2022-10-14T01:58:51.845Z,23.60
2022-10-14T02:01:18.806Z,25.10
2022-10-14T02:03:48.006Z,22.85
2022-10-14T02:06:17.755Z,22.55
2022-10-14T02:08:59.992Z,24.52
2022-10-14T02:11:28.990Z,23.67
2022-10-14T02:14:37.830Z,21.65
2022-10-14T02:17:15.447Z,23.98
2022-10-14T02:20:00.654Z,24.80
2022-10-14T02:22:46.758Z,21.85
2022-10-14T02:25:26.213Z,20.75
2022-10-14T02:30:20.902Z,21.63
2022-10-14T02:32:50.017Z,20.08
2022-10-14T02:35:19.456Z,24.13
2022-10-14T02:37:48.457Z,22.48
2022-10-14T02:40:23.513Z,19.25
2022-10-14T02:42:50.390Z,20.27
2022-10-14T02:45:18.131Z,20.45
2022-10-14T02:47:45.003Z,18.13
2022-10-14T02:50:12.031Z,21.67
2022-10-14T02:52:38.904Z,21.88
2022-10-14T02:55:06.046Z,19.40
2022-10-14T02:57:33.133Z,20.17
2022-10-14T02:59:59.773Z,19.45
2022-10-14T03:02:26.464Z,22.33
2022-10-14T03:04:52.981Z,22.65
2022-10-14T03:07:19.483Z,20.50
2022-10-14T03:09:46.036Z,23.25
2022-10-14T03:12:12.554Z,18.20
2022-10-14T03:14:39.307Z,19.92
2022-10-14T03:17:05.811Z,19.73
2022-10-14T03:19:32.307Z,19.00
2022-10-14T03:21:58.782Z,19.90
2022-10-14T03:24:25.631Z,17.58
2022-10-14T03:26:52.233Z,18.75
2022-10-14T03:29:18.718Z,20.75
2022-10-14T03:31:45.214Z,19.77
2022-10-14T03:34:11.699Z,20.17
2022-10-14T03:36:38.203Z,22.13
2022-10-14T03:39:04.840Z,18.23
2022-10-14T03:41:31.342Z,19.88
2022-10-14T03:43:58.196Z,17.85
2022-10-14T03:46:24.787Z,19.15
2022-10-14T03:48:52.067Z,18.83
2022-10-14T03:51:18.926Z,18.05
2022-10-14T03:53:45.685Z,19.00
2022-10-14T03:56:12.573Z,16.50
2022-10-14T03:58:39.452Z,16.17
2022-10-14T04:01:05.976Z,15.00
2022-10-14T04:03:32.509Z,10.80
2022-10-14T04:05:59.043Z,10.07
2022-10-14T04:08:25.661Z,10.95
2022-10-14T04:10:55.893Z,9.10
2022-10-14T04:13:22.725Z,8.27
2022-10-14T04:15:49.365Z,7.25
2022-10-14T04:18:16.106Z,7.70
2022-10-14T04:20:42.690Z,6.03
2022-10-14T04:23:09.386Z,9.27
2022-10-14T04:25:39.262Z,10.65
2022-10-14T04:28:05.967Z,7.80
2022-10-14T04:30:32.482Z,8.40
2022-10-14T04:32:58.987Z,5.75
2022-10-14T04:35:25.592Z,8.27
2022-10-14T04:37:52.097Z,7.70
2022-10-14T04:40:20.479Z,11.13
2022-10-14T04:42:47.121Z,6.30
2022-10-14T04:45:13.813Z,5.70
2022-10-14T04:47:43.847Z,5.57
2022-10-14T04:50:13.011Z,7.18
2022-10-14T04:52:39.707Z,6.78
2022-10-14T04:55:06.532Z,7.38
2022-10-14T04:57:33.287Z,6.95
2022-10-14T05:00:00.075Z,7.88
2022-10-14T05:02:26.562Z,7.78
2022-10-14T05:04:53.034Z,5.70
2022-10-14T05:07:19.949Z,9.10
2022-10-14T05:09:50.380Z,10.13
2022-10-14T05:12:18.797Z,8.48
2022-10-14T05:14:45.607Z,7.78
2022-10-14T05:17:12.372Z,9.25
2022-10-14T05:19:38.978Z,9.85
2022-10-14T05:22:05.567Z,15.02
2022-10-14T05:24:32.051Z,11.70
2022-10-14T05:26:58.749Z,11.90
2022-10-14T05:29:25.404Z,11.15
2022-10-14T05:31:51.930Z,12.82
2022-10-14T05:34:18.422Z,15.05
2022-10-14T12:39:19.401Z,21.33
2022-10-14T12:42:13.904Z,22.52
2022-10-14T12:44:58.710Z,23.10
2022-10-14T12:47:37.012Z,21.27
2022-10-14T12:50:26.307Z,19.98
2022-10-14T12:52:58.981Z,23.23
2022-10-14T12:55:29.700Z,22.73
2022-10-14T12:58:00.618Z,19.40
2022-10-14T13:00:32.264Z,23.52
2022-10-14T13:03:27.524Z,18.42
2022-10-14T13:06:37.552Z,19.60
2022-10-14T13:09:13.140Z,18.65
2022-10-14T13:11:52.866Z,23.40
2022-10-14T13:14:42.822Z,18.77
2022-10-14T13:17:28.417Z,19.30
2022-10-14T13:19:55.179Z,17.73
2022-10-14T13:22:31.374Z,17.05
2022-10-14T13:25:27.655Z,19.75
2022-10-14T13:28:13.585Z,19.77
2022-10-14T13:30:58.111Z,18.25
2022-10-14T13:33:38.802Z,18.00
2022-10-14T13:36:32.292Z,18.08
2022-10-14T13:39:01.221Z,16.67
2022-10-14T13:41:31.415Z,21.45
2022-10-14T13:44:04.532Z,18.63
2022-10-14T13:46:42.579Z,19.45
2022-10-14T13:49:27.823Z,16.23
2022-10-14T13:52:07.899Z,17.98
2022-10-14T13:54:34.653Z,16.60
2022-10-14T14:02:55.141Z,16.65
2022-10-14T14:05:26.149Z,21.15
2022-10-14T14:10:57.478Z,16.13
2022-10-14T14:13:31.868Z,16.65
2022-10-14T14:15:59.738Z,17.85
2022-10-14T14:18:49.470Z,16.85
2022-10-14T14:21:25.526Z,18.10
2022-10-14T14:23:53.771Z,16.38
2022-10-14T14:26:26.020Z,19.88
2022-10-14T14:28:53.582Z,18.90
2022-10-14T14:31:23.766Z,17.77
2022-10-14T14:33:51.380Z,16.95
2022-10-14T14:36:27.614Z,16.67
2022-10-14T14:39:01.779Z,17.25
2022-10-14T14:41:32.558Z,21.05
2022-10-14T14:44:25.770Z,19.38
2022-10-14T14:46:55.007Z,26.15
2022-10-14T14:49:27.166Z,21.95
2022-10-14T14:51:54.730Z,24.30
2022-10-14T14:54:23.086Z,21.90
2022-10-14T14:57:08.091Z,18.95
2022-10-14T14:59:42.146Z,18.92
2022-10-14T15:02:23.335Z,14.70
2022-10-14T15:05:08.043Z,16.77
2022-10-14T15:07:35.831Z,16.48
2022-10-14T15:10:06.451Z,14.02
2022-10-14T15:12:42.363Z,14.57
2022-10-14T15:15:30.917Z,13.15
2022-10-14T15:18:13.194Z,12.50
2022-10-14T15:20:43.045Z,13.30
2022-10-14T15:23:45.802Z,13.23
2022-10-14T15:26:30.158Z,13.48
2022-10-14T15:29:12.716Z,14.32
2022-10-14T15:31:40.961Z,14.32
2022-10-14T15:34:17.567Z,12.18
2022-10-14T15:36:44.512Z,12.98
2022-10-14T15:39:13.711Z,9.30
2022-10-14T15:41:41.696Z,13.13
2022-10-14T15:44:08.204Z,12.70
2022-10-14T15:46:57.100Z,13.55
2022-10-14T15:49:28.385Z,11.95
2022-10-14T15:51:57.130Z,10.85
2022-10-14T15:54:27.553Z,12.98
2022-10-14T15:59:27.509Z,12.18
2022-10-14T16:02:00.104Z,13.95
2022-10-14T16:04:27.848Z,13.60
2022-10-14T16:06:56.401Z,15.63
2022-10-14T16:09:24.083Z,16.20
2022-10-14T16:11:57.155Z,13.07
2022-10-14T16:14:25.202Z,14.07
2022-10-14T16:16:51.728Z,12.25
2022-10-14T16:19:18.780Z,13.75
2022-10-14T16:21:45.960Z,14.32
2022-10-14T16:24:18.520Z,12.43
2022-10-14T16:26:45.100Z,11.07
2022-10-14T16:29:11.622Z,11.88
2022-10-14T16:31:38.949Z,11.45
2022-10-14T16:34:05.497Z,11.45
2022-10-14T16:36:32.176Z,11.52
2022-10-14T16:39:00.404Z,11.27
2022-10-14T16:41:27.457Z,11.15
2022-10-14T16:43:54.009Z,12.23
2022-10-14T16:46:40.532Z,12.13
2022-10-14T16:49:07.863Z,11.93
2022-10-14T16:51:34.447Z,11.20
2022-10-14T16:54:01.055Z,13.00
2022-10-14T16:56:46.133Z,12.43
2022-10-14T16:59:13.710Z,12.98
2022-10-14T17:01:40.422Z,11.57
2022-10-14T17:04:07.056Z,13.13
2022-10-14T17:06:33.656Z,10.27
2022-10-14T17:09:00.222Z,11.25
